Search for airport 
image banner adimage banner ad
image banner ad

EVLA - Liepaja

Located in Liepaja, Latvia

ICAO - EVLA, IATA - LPX

Data provided by Airmate  

General information

Coordinates: N56°31'3" E21°5'49"
Elevation is 18 feet MSL.
Magnetic variation is 6° East
Rated:
View ratings: [VIEW]


View others Airports in Liepaja District

Operational data

Open for public use
Current time UTC:
Current local time:
Weather
METAR: EVLA 141420Z AUTO 24006KT 9999 NCD 23/10 Q1015
TAF: TAF EVLA 141103Z 1412/1512 VRB02KT CAVOK TEMPO 1420/1424 4000 MIFG BR TEMPO 1500/1505 0500 FG PROB40 TEMPO 1500/1505 BKN001
View NOTAMs / SUP AIP / TFR affecting this airport [VIEW]
Communications frequencies: [VIEW]

Runways:

RWY identifierQFULength (ft)Width (ft)SurfaceLDA (ft)
0670°6568131ASPH6568
24250°6568131ASPH6568

Airport contact information

Address: Liepaja Latvia

Satellite view of EVLA